Time;durP1;ratioP1;P1;durP2;ratioP2;P2;SDS_P1;SDS_P2;PMS_P1;PMS_P2;Temp;Humidity;BMP_temperature;BMP_pressure;BME280_temperature;BME280_humidity;BME280_pressure;Samples;Min_cycle;Max_cycle;Signal;HPM_P1;HPM_P2
2022/08/23 00:02:20;;;;;;;7.73;2.53;;;19.40;1.00;;;;;;5093554;28;20526;-69
2022/08/23 00:04:47;;;;;;;9.57;3.40;;;19.30;1.00;;;;;;5093129;28;20834;-75
2022/08/23 00:07:15;;;;;;;5.27;2.83;;;19.30;1.00;;;;;;5092920;28;20391;-68
2022/08/23 00:09:41;;;;;;;7.90;3.10;;;19.30;1.00;;;;;;5093759;28;20412;-75
2022/08/23 00:12:27;;;;;;;5.57;3.40;;;19.30;1.00;;;;;;5093805;28;20404;-68
2022/08/23 00:14:54;;;;;;;6.47;2.67;;;19.30;1.00;;;;;;5093646;28;20422;-69
2022/08/23 00:17:20;;;;;;;6.20;2.43;;;19.30;1.00;;;;;;5092915;28;20407;-75
2022/08/23 00:19:47;;;;;;;9.43;2.57;;;19.30;1.00;;;;;;5093262;28;20407;-68
2022/08/23 00:22:18;;;;;;;7.07;2.83;;;19.20;1.00;;;;;;5093673;28;20573;-68
2022/08/23 00:24:44;;;;;;;3.33;2.83;;;19.20;1.00;;;;;;5095591;28;20477;-69
2022/08/23 00:27:17;;;;;;;4.33;2.60;;;19.20;1.00;;;;;;5099617;28;20391;-69
2022/08/23 00:29:50;;;;;;;3.87;2.90;;;19.20;1.00;;;;;;5100126;28;20553;-74
2022/08/23 00:32:24;;;;;;;4.20;2.87;;;19.20;1.00;;;;;;5100213;28;20400;-75
2022/08/23 00:34:50;;;;;;;6.10;3.67;;;19.10;1.00;;;;;;5082706;28;20514;-69
2022/08/23 00:37:17;;;;;;;4.77;3.00;;;19.10;1.00;;;;;;5099410;28;20443;-75
2022/08/23 00:39:44;;;;;;;3.93;3.23;;;19.10;1.00;;;;;;5099538;28;20423;-74
2022/08/23 00:48:00;;;;;;;4.20;2.30;;;19.10;1.00;;;;;;5099548;28;20449;-75
2022/08/23 00:50:34;;;;;;;4.83;2.53;;;19.00;1.00;;;;;;5099951;28;20493;-68
2022/08/23 00:53:26;;;;;;;3.87;3.00;;;19.00;1.00;;;;;;5099834;28;20400;-69
2022/08/23 00:56:03;;;;;;;5.67;3.10;;;18.90;1.00;;;;;;5099429;28;20399;-70
2022/08/23 00:58:29;;;;;;;4.60;2.60;;;18.90;1.00;;;;;;5099681;28;20430;-69
2022/08/23 01:00:59;;;;;;;10.87;3.03;;;18.90;1.00;;;;;;5099658;28;20459;-68
2022/08/23 01:03:31;;;;;;;6.67;3.20;;;18.80;1.00;;;;;;5100149;28;20896;-74
2022/08/23 01:06:12;;;;;;;7.23;2.87;;;18.80;1.00;;;;;;5081401;28;20412;-68
2022/08/23 01:08:46;;;;;;;6.30;2.83;;;18.80;1.00;;;;;;5099707;28;20465;-75
2022/08/23 01:11:34;;;;;;;3.40;2.80;;;18.80;1.00;;;;;;5099586;28;20399;-75
2022/08/23 01:14:18;;;;;;;4.30;3.53;;;18.80;1.00;;;;;;5085173;28;20475;-71
2022/08/23 01:17:10;;;;;;;3.40;3.10;;;18.70;6.50;;;;;;5099038;28;20399;-74
2022/08/23 01:20:10;;;;;;;2.47;2.27;;;18.70;7.20;;;;;;5068342;28;20442;-74
2022/08/23 01:22:55;;;;;;;7.70;3.40;;;18.60;11.20;;;;;;5054983;28;20429;-69
2022/08/23 01:25:23;;;;;;;5.57;3.00;;;18.60;11.80;;;;;;5099748;28;20403;-69
2022/08/23 01:27:52;;;;;;;4.50;2.90;;;18.60;12.00;;;;;;5098815;28;20852;-75
2022/08/23 01:30:22;;;;;;;3.30;3.00;;;18.60;17.00;;;;;;5099348;28;20435;-74
2022/08/23 01:32:57;;;;;;;4.13;2.97;;;18.60;22.60;;;;;;5099971;28;20399;-68
2022/08/23 01:42:48;;;;;;;2.63;2.40;;;18.60;30.80;;;;;;5096192;28;20997;-75
2022/08/23 01:45:15;;;;;;;5.07;2.93;;;18.60;31.90;;;;;;5096186;28;20399;-74
2022/08/23 01:47:43;;;;;;;3.97;2.50;;;18.60;30.00;;;;;;5095408;28;20415;-68
2022/08/23 01:50:11;;;;;;;4.10;2.20;;;18.60;34.60;;;;;;5096325;28;20396;-75
2022/08/23 01:52:38;;;;;;;7.73;3.10;;;18.60;29.90;;;;;;5097048;28;20424;-68
2022/08/23 01:55:04;;;;;;;4.73;3.50;;;18.50;37.90;;;;;;5096150;28;20795;-69
2022/08/23 01:57:31;;;;;;;3.43;3.23;;;18.50;34.50;;;;;;5095133;28;20483;-68
2022/08/23 02:00:00;;;;;;;7.23;2.47;;;18.50;34.00;;;;;;5095864;28;20446;-74
2022/08/23 02:02:27;;;;;;;3.47;2.90;;;18.50;42.30;;;;;;5095913;28;20447;-75
2022/08/23 02:04:56;;;;;;;4.00;3.07;;;18.50;38.50;;;;;;5096329;28;20411;-69
2022/08/23 02:07:30;;;;;;;3.57;2.70;;;18.50;35.30;;;;;;5094532;28;20871;-69
2022/08/23 02:09:57;;;;;;;4.23;3.10;;;18.40;42.10;;;;;;5095717;28;20391;-68
2022/08/23 02:12:23;;;;;;;5.50;3.83;;;18.40;62.50;;;;;;5095904;28;20395;-75
2022/08/23 02:14:49;;;;;;;3.97;2.40;;;18.40;41.50;;;;;;5095686;28;20388;-75
2022/08/23 02:17:18;;;;;;;5.57;3.07;;;18.40;46.00;;;;;;5094953;28;20438;-74
2022/08/23 02:19:54;;;;;;;5.13;3.67;;;18.40;47.70;;;;;;5095551;28;20165;-74
2022/08/23 02:22:21;;;;;;;4.70;3.23;;;18.40;44.30;;;;;;5095419;28;20981;-74
2022/08/23 02:24:48;;;;;;;3.90;3.27;;;18.40;49.10;;;;;;5094952;28;20395;-68
2022/08/23 02:27:14;;;;;;;3.97;2.90;;;18.40;51.30;;;;;;5094758;28;20392;-75
2022/08/23 02:29:43;;;;;;;6.30;2.63;;;18.50;48.50;;;;;;5095321;28;20431;-74
2022/08/23 02:32:11;;;;;;;3.37;3.17;;;18.40;48.20;;;;;;5095408;28;20425;-68
2022/08/23 02:34:38;;;;;;;8.50;2.70;;;18.40;42.30;;;;;;5095411;28;20419;-69
2022/08/23 02:37:06;;;;;;;3.40;3.10;;;18.40;47.40;;;;;;5094601;28;20405;-68
2022/08/23 02:39:32;;;;;;;4.23;3.03;;;18.40;50.60;;;;;;5095046;28;20450;-69
2022/08/23 02:41:59;;;;;;;4.20;3.20;;;18.40;50.80;;;;;;5094922;28;20513;-70
2022/08/23 02:44:25;;;;;;;4.77;3.00;;;18.40;50.00;;;;;;5094642;28;20791;-75
2022/08/23 02:46:54;;;;;;;10.30;3.20;;;18.50;54.40;;;;;;5094284;28;20403;-75
2022/08/23 02:49:20;;;;;;;7.37;3.30;;;18.50;55.60;;;;;;5094822;28;20502;-69
2022/08/23 02:51:46;;;;;;;5.90;3.37;;;18.50;50.50;;;;;;5094924;28;20541;-74
2022/08/23 02:54:15;;;;;;;4.00;3.60;;;18.50;50.20;;;;;;5094895;28;20395;-69
2022/08/23 02:56:41;;;;;;;2.97;2.67;;;18.50;73.10;;;;;;5094125;28;20403;-75
2022/08/23 02:59:09;;;;;;;3.13;2.93;;;18.50;53.30;;;;;;5094610;28;20411;-68
2022/08/23 03:01:37;;;;;;;3.40;3.10;;;18.50;51.20;;;;;;5094507;28;20447;-71
2022/08/23 03:04:14;;;;;;;7.73;3.00;;;18.50;62.00;;;;;;5094297;28;20399;-75
2022/08/23 03:06:40;;;;;;;3.80;3.40;;;18.50;80.80;;;;;;5093966;28;20513;-74
2022/08/23 03:09:07;;;;;;;8.83;3.23;;;18.50;77.30;;;;;;5094573;28;20424;-74
2022/08/23 03:11:37;;;;;;;4.77;3.40;;;18.50;79.40;;;;;;5094519;28;20439;-75
2022/08/23 03:14:03;;;;;;;5.80;3.10;;;18.50;59.40;;;;;;5094244;28;20400;-69
2022/08/23 03:16:29;;;;;;;3.50;3.20;;;18.60;60.60;;;;;;5093779;28;20487;-75
2022/08/23 03:18:56;;;;;;;5.27;3.50;;;18.60;67.40;;;;;;5094402;28;20423;-68
2022/08/23 03:21:22;;;;;;;4.37;3.47;;;18.60;71.90;;;;;;5076031;28;20444;-69
2022/08/23 03:23:48;;;;;;;6.27;3.47;;;18.60;74.60;;;;;;5094048;28;20445;-74
2022/08/23 03:26:15;;;;;;;4.00;3.20;;;18.50;71.80;;;;;;5093669;28;20399;-74
2022/08/23 03:28:44;;;;;;;3.13;2.87;;;18.60;82.90;;;;;;5094121;28;20434;-69
2022/08/23 03:31:14;;;;;;;5.40;3.53;;;18.60;68.70;;;;;;5076059;28;20469;-75
2022/08/23 03:33:40;;;;;;;4.00;3.70;;;18.60;77.90;;;;;;5094241;28;20449;-75
2022/08/23 03:36:09;;;;;;;4.83;3.63;;;18.50;84.30;;;;;;5093507;28;20503;-75
2022/08/23 03:38:38;;;;;;;4.20;3.67;;;18.60;85.60;;;;;;5075583;28;20447;-74
2022/08/23 03:41:08;;;;;;;3.57;2.90;;;18.60;69.10;;;;;;5093957;28;20792;-69
2022/08/23 03:43:34;;;;;;;3.83;3.37;;;18.60;66.90;;;;;;5094047;28;20384;-75
2022/08/23 03:46:00;;;;;;;6.27;3.30;;;18.60;71.30;;;;;;5093408;28;20400;-69
2022/08/23 03:48:27;;;;;;;6.33;3.50;;;18.50;69.50;;;;;;5093758;28;20472;-75
2022/08/23 03:50:53;;;;;;;4.47;3.40;;;18.50;94.90;;;;;;5076004;28;20749;-68
2022/08/23 03:53:24;;;;;;;10.47;3.40;;;18.50;92.70;;;;;;5094691;28;20406;-68
2022/08/23 03:55:52;;;;;;;3.93;2.73;;;18.50;63.40;;;;;;5093647;28;20457;-74
2022/08/23 03:58:20;;;;;;;4.30;3.03;;;18.50;94.10;;;;;;5092638;28;20480;-69
2022/08/23 04:00:46;;;;;;;5.80;4.20;;;18.50;70.90;;;;;;5093116;28;20521;-68
2022/08/23 04:03:12;;;;;;;6.63;3.20;;;18.50;65.20;;;;;;5093824;28;20487;-75
2022/08/23 04:05:38;;;;;;;9.70;3.60;;;18.50;58.90;;;;;;5093793;28;20483;-69
2022/08/23 04:08:09;;;;;;;4.00;3.60;;;18.50;62.60;;;;;;5092897;28;20569;-75
2022/08/23 04:10:38;;;;;;;5.17;4.07;;;18.40;75.90;;;;;;5075329;28;20731;-68
2022/08/23 04:13:05;;;;;;;6.67;4.10;;;18.50;66.20;;;;;;5093578;28;20411;-68
2022/08/23 04:15:31;;;;;;;5.30;3.47;;;18.50;78.60;;;;;;5093559;28;20963;-68
2022/08/23 04:18:00;;;;;;;4.60;3.63;;;18.50;66.70;;;;;;5093120;28;20510;-69
2022/08/23 04:20:27;;;;;;;10.93;3.87;;;18.50;63.30;;;;;;5093507;28;20412;-68
2022/08/23 04:22:55;;;;;;;5.77;3.97;;;18.60;64.80;;;;;;5075478;28;20412;-75
2022/08/23 04:25:21;;;;;;;7.90;4.20;;;18.60;64.80;;;;;;5093660;28;20399;-69
2022/08/23 04:27:47;;;;;;;4.73;3.83;;;18.60;64.20;;;;;;5093232;28;20434;-68
2022/08/23 04:30:14;;;;;;;9.60;3.77;;;18.60;57.60;;;;;;5093424;28;20468;-68
2022/08/23 04:32:46;;;;;;;7.63;3.53;;;18.60;58.10;;;;;;5093964;28;20411;-74
2022/08/23 04:35:12;;;;;;;5.80;4.43;;;18.50;61.60;;;;;;5093881;28;20435;-69
2022/08/23 04:43:52;;;;;;;4.10;3.50;;;18.60;62.50;;;;;;5094204;28;20394;-74
2022/08/23 04:46:20;;;;;;;4.00;3.70;;;18.60;53.50;;;;;;5074592;28;20900;-69
2022/08/23 04:48:47;;;;;;;6.80;4.67;;;18.60;61.40;;;;;;5093346;28;20431;-70
2022/08/23 04:51:13;;;;;;;3.60;3.30;;;18.60;48.20;;;;;;5094217;28;20915;-75
2022/08/23 04:53:40;;;;;;;5.10;3.50;;;18.60;66.20;;;;;;5093190;28;20494;-68
2022/08/23 04:56:07;;;;;;;4.43;3.80;;;18.70;56.30;;;;;;5091986;28;20410;-74
2022/08/23 04:58:40;;;;;;;5.40;3.93;;;18.70;40.60;;;;;;5093519;28;20457;-69
2022/08/23 05:01:07;;;;;;;5.37;4.20;;;18.80;54.30;;;;;;5093123;28;20450;-75
2022/08/23 05:03:34;;;;;;;4.20;3.10;;;18.80;53.60;;;;;;5093282;28;20411;-75
2022/08/23 05:06:00;;;;;;;3.43;3.10;;;18.80;40.60;;;;;;5093526;28;20432;-74
2022/08/23 05:08:26;;;;;;;4.03;3.63;;;18.80;44.50;;;;;;5093016;28;20873;-68
2022/08/23 05:10:52;;;;;;;5.47;3.40;;;18.80;41.80;;;;;;5092704;28;20396;-74
2022/08/23 05:13:18;;;;;;;4.57;3.60;;;18.90;38.30;;;;;;5077835;28;20931;-68
2022/08/23 05:15:44;;;;;;;3.80;3.40;;;18.90;49.30;;;;;;5096679;28;20415;-74
2022/08/23 05:18:11;;;;;;;6.33;4.30;;;18.90;38.70;;;;;;5077975;28;20435;-75
2022/08/23 05:20:37;;;;;;;6.97;4.10;;;19.00;28.10;;;;;;5096675;28;20581;-68
2022/08/23 05:23:03;;;;;;;7.77;3.87;;;19.00;28.70;;;;;;5096727;28;20403;-74
2022/08/23 05:28:26;;;;;;;8.83;4.03;;;19.10;25.10;;;;;;5095943;28;20445;-75
2022/08/23 05:30:55;;;;;;;3.30;3.07;;;19.10;31.70;;;;;;5077830;28;20419;-74
2022/08/23 05:33:24;;;;;;;8.20;4.00;;;19.10;23.00;;;;;;5078260;28;20443;-74
2022/08/23 05:35:50;;;;;;;5.50;3.70;;;19.10;27.00;;;;;;5096381;28;20404;-69
2022/08/23 05:38:16;;;;;;;6.47;3.50;;;19.10;19.30;;;;;;5095790;28;20419;-75
2022/08/23 05:40:46;;;;;;;3.70;3.40;;;19.20;20.60;;;;;;5096368;28;20451;-76
2022/08/23 05:43:13;;;;;;;3.90;3.60;;;19.20;20.90;;;;;;5078383;28;20407;-74
2022/08/23 05:45:39;;;;;;;3.93;3.60;;;19.20;25.40;;;;;;5096436;28;20424;-75
2022/08/23 05:48:04;;;;;;;4.13;3.70;;;19.30;15.20;;;;;;5095106;28;20858;-75
2022/08/23 05:50:35;;;;;;;5.47;3.53;;;19.30;19.20;;;;;;5096220;28;20408;-75
2022/08/23 05:53:01;;;;;;;4.60;3.37;;;19.40;13.70;;;;;;5096166;28;20253;-74
2022/08/23 05:55:27;;;;;;;3.37;3.00;;;19.50;8.00;;;;;;5077920;28;20522;-69
2022/08/23 05:57:52;;;;;;;4.70;4.30;;;19.50;9.70;;;;;;5095349;28;20419;-75
2022/08/23 06:00:19;;;;;;;4.30;3.40;;;19.60;1.00;;;;;;5095977;28;20162;-74
2022/08/23 06:02:45;;;;;;;3.33;3.07;;;19.60;10.10;;;;;;5095949;28;20192;-75
2022/08/23 06:05:12;;;;;;;5.37;3.53;;;19.70;1.00;;;;;;5077238;28;20461;-68
2022/08/23 06:07:38;;;;;;;10.20;3.30;;;19.70;1.00;;;;;;5076853;28;20428;-68
2022/08/23 06:10:05;;;;;;;3.27;2.97;;;19.70;1.00;;;;;;5077630;28;20454;-68
2022/08/23 06:12:32;;;;;;;4.97;3.60;;;19.70;1.00;;;;;;5077615;28;20518;-68
2022/08/23 06:14:58;;;;;;;5.87;3.30;;;19.80;1.00;;;;;;5077835;28;20773;-69
2022/08/23 06:17:24;;;;;;;5.50;3.23;;;19.90;1.00;;;;;;5076626;28;20411;-70
2022/08/23 06:20:26;;;;;;;5.57;3.50;;;20.00;1.00;;;;;;5077669;28;20908;-68
2022/08/23 06:22:54;;;;;;;6.53;3.50;;;20.00;1.00;;;;;;5094004;28;20549;-69
2022/08/23 06:25:20;;;;;;;5.20;2.93;;;20.10;1.00;;;;;;5095637;28;20402;-75
2022/08/23 06:27:46;;;;;;;4.80;2.87;;;20.10;1.00;;;;;;5076422;28;20858;-76
2022/08/23 06:30:12;;;;;;;3.80;2.63;;;20.10;1.00;;;;;;5077166;28;20485;-69
2022/08/23 06:32:48;;;;;;;4.77;3.23;;;20.10;1.00;;;;;;5095315;28;20983;-74
2022/08/23 06:35:14;;;;;;;5.23;2.50;;;20.10;1.00;;;;;;5095391;28;20403;-68
2022/08/23 06:37:41;;;;;;;3.10;2.80;;;20.10;1.00;;;;;;5094424;28;20432;-69
2022/08/23 06:40:07;;;;;;;4.33;3.30;;;20.10;1.00;;;;;;5094849;28;20212;-74
2022/08/23 06:42:33;;;;;;;5.20;2.70;;;20.10;1.00;;;;;;5077022;28;20542;-75
2022/08/23 06:44:58;;;;;;;2.30;2.13;;;20.20;1.00;;;;;;5095277;28;20483;-75
2022/08/23 06:47:24;;;;;;;2.90;2.47;;;20.20;1.00;;;;;;5076273;28;20252;-74
2022/08/23 06:49:50;;;;;;;2.90;2.67;;;20.20;1.00;;;;;;5076895;28;20169;-69
2022/08/23 06:52:16;;;;;;;2.73;2.53;;;20.20;1.00;;;;;;5095105;28;20243;-69
2022/08/23 06:54:45;;;;;;;3.37;2.40;;;20.30;1.00;;;;;;5094893;28;20169;-75
2022/08/23 06:57:14;;;;;;;3.20;2.00;;;20.30;1.00;;;;;;5075645;28;20431;-69
2022/08/23 06:59:39;;;;;;;6.10;2.87;;;20.40;1.00;;;;;;5076614;28;20403;-76
2022/08/23 07:02:07;;;;;;;2.47;2.37;;;20.40;1.00;;;;;;5076765;28;20539;-69
2022/08/23 07:04:37;;;;;;;2.47;2.27;;;20.50;1.00;;;;;;5076650;28;20329;-69
2022/08/23 07:07:04;;;;;;;2.80;1.90;;;20.60;1.00;;;;;;5094153;28;20907;-68
2022/08/23 07:09:30;;;;;;;5.10;2.30;;;20.60;1.00;;;;;;5076310;28;20989;-69
2022/08/23 07:11:57;;;;;;;4.37;2.80;;;20.70;1.00;;;;;;5093970;28;20424;-69
2022/08/23 07:14:24;;;;;;;3.50;2.47;;;20.70;1.00;;;;;;5094573;28;20466;-76
2022/08/23 07:17:00;;;;;;;2.13;2.03;;;20.80;1.00;;;;;;5093743;28;20888;-76
2022/08/23 07:19:28;;;;;;;5.67;2.53;;;20.80;1.00;;;;;;5094433;28;20442;-76
2022/08/23 07:21:55;;;;;;;2.70;2.00;;;20.90;1.00;;;;;;5076046;28;20459;-75
2022/08/23 07:24:25;;;;;;;2.83;2.63;;;20.90;1.00;;;;;;5094376;28;20395;-75
2022/08/23 07:26:52;;;;;;;3.97;2.70;;;21.00;1.00;;;;;;5075831;28;20415;-76
2022/08/23 07:29:19;;;;;;;4.33;2.53;;;21.00;1.00;;;;;;5075892;28;20455;-76
2022/08/23 07:31:49;;;;;;;3.30;2.40;;;21.00;1.00;;;;;;5075501;28;20498;-69
2022/08/23 07:34:15;;;;;;;3.17;2.40;;;21.10;1.00;;;;;;5075367;28;20496;-68
2022/08/23 07:36:43;;;;;;;6.00;2.80;;;21.20;1.00;;;;;;5093588;28;20432;-76
2022/08/23 07:39:10;;;;;;;2.67;2.47;;;21.20;1.00;;;;;;5094182;28;20423;-75
2022/08/23 07:41:46;;;;;;;7.10;2.33;;;21.40;1.00;;;;;;5075863;28;20538;-69
2022/08/23 07:44:13;;;;;;;5.70;2.13;;;21.40;1.00;;;;;;5075839;28;20498;-70
2022/08/23 07:46:42;;;;;;;4.50;2.37;;;21.50;1.00;;;;;;5093421;28;20403;-76
2022/08/23 07:49:10;;;;;;;4.20;2.80;;;21.60;1.00;;;;;;5093455;28;20506;-75
2022/08/23 07:51:36;;;;;;;2.90;2.70;;;21.70;1.00;;;;;;5094154;28;20400;-69
2022/08/23 07:54:05;;;;;;;4.37;3.10;;;21.60;1.00;;;;;;5093921;28;20465;-75
2022/08/23 07:56:31;;;;;;;3.57;3.33;;;21.70;1.00;;;;;;5093080;28;20467;-69
2022/08/23 07:58:57;;;;;;;3.40;2.77;;;21.80;1.00;;;;;;5093925;28;20506;-76
2022/08/23 08:01:26;;;;;;;2.90;2.07;;;21.80;1.00;;;;;;5075630;28;20447;-70
2022/08/23 08:03:54;;;;;;;6.00;3.10;;;21.90;1.00;;;;;;5093793;28;20388;-68
2022/08/23 08:06:27;;;;;;;3.13;2.80;;;21.90;1.00;;;;;;5074301;28;20403;-75
2022/08/23 08:08:53;;;;;;;7.33;2.40;;;21.90;1.00;;;;;;5075656;28;20427;-75
2022/08/23 08:11:23;;;;;;;4.93;2.90;;;22.00;1.00;;;;;;5075826;28;20423;-69
2022/08/23 08:13:49;;;;;;;3.70;3.00;;;22.10;1.00;;;;;;5075511;28;21034;-69
2022/08/23 08:16:21;;;;;;;3.40;2.60;;;22.20;1.00;;;;;;5074550;28;20438;-72
2022/08/23 08:18:47;;;;;;;2.70;2.50;;;22.30;1.00;;;;;;5093420;28;20438;-76
2022/08/23 08:21:14;;;;;;;2.80;2.60;;;22.40;1.00;;;;;;5093544;28;20811;-75
2022/08/23 08:23:40;;;;;;;4.07;2.50;;;22.50;1.00;;;;;;5074967;28;20170;-70
2022/08/23 08:26:07;;;;;;;3.77;2.90;;;22.60;1.00;;;;;;5092794;28;20414;-70
2022/08/23 08:28:34;;;;;;;3.17;2.37;;;22.70;1.00;;;;;;5093262;28;20201;-71
2022/08/23 08:31:01;;;;;;;3.43;2.90;;;22.70;1.00;;;;;;5075487;28;20819;-71
2022/08/23 08:33:29;;;;;;;2.90;2.70;;;22.90;1.00;;;;;;5093430;28;20407;-72
2022/08/23 08:35:55;;;;;;;3.20;2.90;;;22.90;1.00;;;;;;5093379;28;20498;-71
2022/08/23 08:38:21;;;;;;;3.67;2.30;;;23.10;1.00;;;;;;5074952;28;20427;-70
2022/08/23 08:40:55;;;;;;;2.70;2.50;;;23.20;1.00;;;;;;5074615;28;20459;-74
2022/08/23 08:43:48;;;;;;;3.40;3.10;;;23.30;1.00;;;;;;5093415;28;20400;-71
2022/08/23 08:46:44;;;;;;;4.57;2.60;;;23.40;1.00;;;;;;5094539;28;20427;-75
2022/08/23 08:49:16;;;;;;;4.83;3.00;;;23.40;1.00;;;;;;5079292;28;20427;-75
2022/08/23 08:52:10;;;;;;;3.40;2.33;;;23.40;1.00;;;;;;5097293;28;20418;-71
2022/08/23 08:54:36;;;;;;;6.03;2.80;;;23.60;1.00;;;;;;5079016;28;20422;-74
2022/08/23 08:57:04;;;;;;;3.20;2.90;;;23.80;1.00;;;;;;5096079;28;20904;-75
2022/08/23 09:00:00;;;;;;;4.23;2.43;;;24.00;1.00;;;;;;5097188;28;20463;-71
2022/08/23 09:02:33;;;;;;;4.17;2.83;;;24.20;1.00;;;;;;5097202;28;20459;-71
2022/08/23 09:05:08;;;;;;;4.23;2.47;;;24.50;1.00;;;;;;5097066;28;20438;-70
2022/08/23 09:08:02;;;;;;;2.23;2.07;;;24.60;1.00;;;;;;5096456;28;20411;-74
2022/08/23 09:11:03;;;;;;;2.17;1.97;;;24.80;1.00;;;;;;5096852;28;20874;-76
2022/08/23 09:13:58;;;;;;;3.93;2.60;;;24.80;1.00;;;;;;4997856;28;20494;-72
2022/08/23 09:16:33;;;;;;;5.20;2.33;;;24.90;1.00;;;;;;5077994;28;20461;-75
2022/08/23 09:19:01;;;;;;;5.77;2.20;;;25.20;1.00;;;;;;5096546;28;20453;-75
2022/08/23 09:21:32;;;;;;;2.30;1.77;;;25.40;1.00;;;;;;5096830;28;20455;-75
2022/08/23 09:23:58;;;;;;;2.40;2.00;;;25.40;1.00;;;;;;5078418;28;20415;-75
2022/08/23 09:26:26;;;;;;;5.33;2.80;;;25.40;1.00;;;;;;5077937;28;20457;-71
2022/08/23 09:28:58;;;;;;;6.60;2.70;;;25.50;1.00;;;;;;5078326;28;20658;-74
2022/08/23 09:31:51;;;;;;;2.70;2.17;;;25.60;1.00;;;;;;5078388;28;20440;-71
2022/08/23 09:34:33;;;;;;;2.17;1.50;;;25.70;1.00;;;;;;5096310;28;20455;-72
2022/08/23 09:37:21;;;;;;;2.93;2.60;;;25.90;1.00;;;;;;5095713;28;20416;-75
2022/08/23 09:39:50;;;;;;;1.73;1.63;;;26.10;1.00;;;;;;5096518;28;20756;-71
2022/08/23 09:42:37;;;;;;;3.27;1.70;;;26.20;1.00;;;;;;5078698;28;20504;-75
2022/08/23 09:45:25;;;;;;;3.07;1.93;;;26.30;1.00;;;;;;5096287;28;20400;-76
2022/08/23 09:47:52;;;;;;;5.40;1.77;;;26.50;1.00;;;;;;5095489;28;20427;-73
2022/08/23 09:50:38;;;;;;;3.40;2.73;;;26.50;1.00;;;;;;5095856;28;20951;-69
2022/08/23 09:53:22;;;;;;;2.70;1.60;;;26.80;1.00;;;;;;5095008;28;20396;-68
2022/08/23 09:55:51;;;;;;;2.03;1.80;;;27.20;1.00;;;;;;5096068;28;20169;-75
2022/08/23 09:58:34;;;;;;;1.90;1.70;;;27.20;1.00;;;;;;5094560;28;20510;-68
2022/08/23 10:01:23;;;;;;;1.83;1.50;;;27.30;1.00;;;;;;5077812;28;20442;-74
2022/08/23 10:04:36;;;;;;;1.90;1.70;;;27.50;1.00;;;;;;5096114;28;20408;-70
2022/08/23 10:07:33;;;;;;;1.87;1.47;;;27.80;1.00;;;;;;5041641;28;20570;-75
2022/08/23 10:10:22;;;;;;;3.00;1.90;;;27.80;1.00;;;;;;5095478;28;20404;-74
2022/08/23 10:12:49;;;;;;;2.83;2.50;;;27.70;1.00;;;;;;5095708;28;20513;-75
2022/08/23 10:15:15;;;;;;;8.27;3.30;;;28.00;1.00;;;;;;5077828;28;20461;-76
2022/08/23 10:17:52;;;;;;;5.17;1.80;;;28.30;1.00;;;;;;5094732;28;20435;-68
2022/08/23 10:20:32;;;;;;;2.00;1.60;;;28.50;1.00;;;;;;5077750;28;20407;-75
2022/08/23 10:23:22;;;;;;;3.40;2.10;;;28.70;1.00;;;;;;5095475;28;20412;-68
2022/08/23 10:25:55;;;;;;;2.03;1.40;;;28.80;1.00;;;;;;5076798;28;20436;-68
2022/08/23 10:31:46;;;;;;;5.33;2.17;;;29.00;1.00;;;;;;5095357;28;20402;-69
2022/08/23 10:34:41;;;;;;;2.33;1.87;;;29.00;1.00;;;;;;5069425;28;20518;-70
2022/08/23 10:37:40;;;;;;;3.53;2.50;;;29.20;1.00;;;;;;5094662;28;20472;-75
2022/08/23 10:40:27;;;;;;;3.40;1.90;;;29.40;1.00;;;;;;5095236;28;20392;-76
2022/08/23 10:42:58;;;;;;;7.03;2.10;;;29.40;1.00;;;;;;5076532;28;20534;-69
2022/08/23 10:45:32;;;;;;;3.00;1.80;;;29.50;1.00;;;;;;5076787;28;20908;-69
2022/08/23 10:48:11;;;;;;;3.93;2.50;;;29.60;1.00;;;;;;5076174;28;21005;-76
2022/08/23 10:51:03;;;;;;;2.07;1.90;;;29.60;1.00;;;;;;5076966;28;20918;-76
2022/08/23 10:53:45;;;;;;;4.60;1.80;;;30.00;1.00;;;;;;5094024;28;20423;-70
2022/08/23 10:56:18;;;;;;;2.33;1.80;;;30.30;1.00;;;;;;5094397;28;20404;-69
2022/08/23 10:59:06;;;;;;;2.60;2.40;;;30.50;1.00;;;;;;5076694;28;20431;-76
2022/08/23 11:02:10;;;;;;;4.57;2.80;;;30.50;1.00;;;;;;5076900;28;20451;-76
2022/08/23 11:04:54;;;;;;;1.87;1.77;;;30.40;1.00;;;;;;5076568;28;20972;-69
2022/08/23 11:07:31;;;;;;;4.33;2.30;;;30.30;1.00;;;;;;5076054;28;20400;-75
2022/08/23 11:10:16;;;;;;;3.30;2.27;;;30.30;1.00;;;;;;5076323;28;20415;-76
2022/08/23 11:12:59;;;;;;;5.80;2.30;;;30.50;1.00;;;;;;5076440;28;20403;-69
2022/08/23 11:15:37;;;;;;;3.73;1.63;;;30.80;1.00;;;;;;5094601;28;20411;-69
2022/08/23 11:18:07;;;;;;;4.83;2.33;;;31.00;1.00;;;;;;5093545;28;20437;-69
2022/08/23 11:20:48;;;;;;;3.17;1.70;;;31.10;1.00;;;;;;5094081;28;20899;-71
2022/08/23 11:23:34;;;;;;;6.50;2.57;;;31.60;1.00;;;;;;5094782;28;20434;-76
2022/08/23 11:26:01;;;;;;;5.17;1.80;;;31.70;1.00;;;;;;5093088;28;20806;-74
2022/08/23 11:28:27;;;;;;;3.03;2.07;;;31.80;1.00;;;;;;5094215;28;20497;-76
2022/08/23 11:30:55;;;;;;;4.17;2.00;;;32.20;1.00;;;;;;5094276;28;20411;-69
2022/08/23 11:33:33;;;;;;;1.80;1.70;;;32.40;1.00;;;;;;5094186;28;20169;-70
2022/08/23 11:36:07;;;;;;;3.33;1.83;;;32.40;1.00;;;;;;5093635;28;20399;-75
2022/08/23 11:38:42;;;;;;;2.83;2.50;;;31.90;1.00;;;;;;5094184;28;20483;-70
2022/08/23 11:41:28;;;;;;;2.53;1.50;;;31.80;1.00;;;;;;5093798;28;20768;-69
2022/08/23 11:44:05;;;;;;;2.23;2.07;;;32.10;1.00;;;;;;5094118;28;20418;-76
2022/08/23 11:46:47;;;;;;;2.50;1.63;;;32.60;1.00;;;;;;5093464;28;20473;-71
2022/08/23 11:49:28;;;;;;;4.53;2.30;;;33.20;1.00;;;;;;5093890;28;20456;-70
2022/08/23 11:52:05;;;;;;;2.43;1.83;;;33.20;1.00;;;;;;5094045;28;20392;-77
2022/08/23 11:54:31;;;;;;;2.20;1.90;;;33.00;1.00;;;;;;5094026;28;20444;-76
2022/08/23 11:57:15;;;;;;;1.87;1.67;;;32.80;1.00;;;;;;5093310;28;20395;-75
2022/08/23 11:59:56;;;;;;;1.90;1.70;;;32.90;1.00;;;;;;5093680;28;20249;-70
2022/08/23 12:02:37;;;;;;;3.43;1.40;;;33.00;1.00;;;;;;5075500;28;20447;-70
2022/08/23 12:05:21;;;;;;;2.47;2.00;;;33.20;1.00;;;;;;5094079;28;20456;-76
2022/08/23 12:07:52;;;;;;;1.43;1.33;;;33.40;1.00;;;;;;5093174;28;20806;-71
2022/08/23 12:10:39;;;;;;;2.43;1.87;;;33.20;1.00;;;;;;5093808;28;20435;-77
2022/08/23 12:13:17;;;;;;;6.20;2.00;;;32.60;1.00;;;;;;5093670;28;20733;-77
2022/08/23 12:16:04;;;;;;;2.57;1.80;;;32.90;1.00;;;;;;5093072;28;20880;-77
2022/08/23 12:18:32;;;;;;;5.53;1.80;;;33.00;1.00;;;;;;5094237;28;20431;-73
2022/08/23 12:21:00;;;;;;;3.40;1.47;;;33.00;1.00;;;;;;5093521;28;20832;-73
2022/08/23 12:23:26;;;;;;;2.17;1.40;;;32.40;1.00;;;;;;5093658;28;20920;-76
2022/08/23 12:26:12;;;;;;;2.70;1.60;;;32.20;1.00;;;;;;5093392;28;20410;-76
2022/08/23 12:29:00;;;;;;;3.53;1.93;;;32.30;1.00;;;;;;5093296;28;20525;-77
2022/08/23 12:31:37;;;;;;;1.77;1.47;;;31.90;1.00;;;;;;5093278;28;20445;-76
2022/08/23 12:34:11;;;;;;;2.70;1.70;;;31.20;1.00;;;;;;5093406;28;20417;-76
2022/08/23 12:36:40;;;;;;;2.10;1.90;;;30.60;1.00;;;;;;5092901;28;20391;-76
2022/08/23 12:39:21;;;;;;;3.27;2.10;;;30.00;1.00;;;;;;5093269;28;20415;-77
2022/08/23 12:41:58;;;;;;;2.70;1.53;;;29.50;1.00;;;;;;5093318;28;20443;-72
2022/08/23 12:44:27;;;;;;;3.63;1.53;;;29.30;1.00;;;;;;5093381;28;20396;-72
2022/08/23 12:46:53;;;;;;;4.43;2.30;;;29.20;1.00;;;;;;5092592;28;20392;-72
2022/08/23 12:49:29;;;;;;;2.63;1.50;;;29.10;1.00;;;;;;5093141;28;20765;-76
2022/08/23 12:51:57;;;;;;;2.00;1.50;;;29.20;1.00;;;;;;5093566;28;20485;-72
2022/08/23 12:54:43;;;;;;;2.40;1.40;;;29.30;1.00;;;;;;5093290;28;20453;-72
2022/08/23 12:57:35;;;;;;;2.43;1.73;;;29.40;1.00;;;;;;5092576;28;20411;-76
2022/08/23 13:00:28;;;;;;;2.27;1.60;;;29.40;1.00;;;;;;5083779;28;20424;-71
2022/08/23 13:03:17;;;;;;;2.07;1.70;;;29.50;1.00;;;;;;5092964;28;20443;-76
2022/08/23 13:06:02;;;;;;;1.93;1.60;;;29.50;1.00;;;;;;5093060;28;20435;-71
2022/08/23 13:08:51;;;;;;;2.13;1.50;;;29.40;1.00;;;;;;5092490;28;20506;-72
2022/08/23 13:11:20;;;;;;;2.73;1.90;;;29.50;1.00;;;;;;5092423;28;20497;-71
2022/08/23 13:13:46;;;;;;;1.93;1.60;;;29.50;1.00;;;;;;5074922;28;20447;-70
2022/08/23 13:16:27;;;;;;;2.20;2.00;;;29.50;1.00;;;;;;5074441;28;20813;-76
2022/08/23 13:18:54;;;;;;;3.60;1.30;;;29.40;1.00;;;;;;5074794;28;20531;-71
2022/08/23 13:21:25;;;;;;;3.23;1.80;;;29.30;1.00;;;;;;5093091;28;20542;-70
2022/08/23 13:23:57;;;;;;;2.30;1.53;;;29.20;1.00;;;;;;5092984;28;20449;-71
2022/08/23 13:26:35;;;;;;;1.60;1.40;;;29.00;1.00;;;;;;5092315;28;20795;-76
2022/08/23 13:29:16;;;;;;;4.07;2.03;;;29.00;1.00;;;;;;5074073;28;20456;-71
2022/08/23 13:31:51;;;;;;;1.83;1.53;;;28.90;1.00;;;;;;5093174;28;20399;-77
2022/08/23 13:34:52;;;;;;;2.07;1.50;;;28.90;1.00;;;;;;5096296;28;20395;-76
2022/08/23 13:37:28;;;;;;;2.73;1.47;;;28.80;1.00;;;;;;5052499;28;20426;-71
2022/08/23 13:39:58;;;;;;;3.60;1.77;;;28.90;1.00;;;;;;5096582;28;20431;-72
2022/08/23 13:42:37;;;;;;;1.67;1.57;;;28.90;1.00;;;;;;5096301;28;20454;-77
2022/08/23 13:45:12;;;;;;;1.53;1.40;;;28.80;1.00;;;;;;5078548;28;20415;-72
2022/08/23 13:47:48;;;;;;;2.43;1.60;;;28.90;1.00;;;;;;5095201;28;20422;-71